Time;durP1;ratioP1;P1;durP2;ratioP2;P2;SDS_P1;SDS_P2;PMS_P1;PMS_P2;Temp;Humidity;BMP_temperature;BMP_pressure;BME280_temperature;BME280_humidity;BME280_pressure;Samples;Min_cycle;Max_cycle;Signal;HPM_P1;HPM_P2
2023/09/19 07:07:08;;;;;;;15.15;10.25;;;;;;;26.96;35.07;100795.02;1642440;85;21245;-79
2023/09/19 07:10:18;;;;;;;16.40;9.10;;;;;;;27.17;35.08;100797.36;1638665;85;21987;-79
2023/09/19 07:13:36;;;;;;;22.73;10.88;;;;;;;27.28;35.46;100795.42;1638096;85;21342;-79
2023/09/19 07:17:06;;;;;;;22.60;10.75;;;;;;;27.39;35.11;100794.92;1637534;87;22618;-79
2023/09/19 07:20:26;;;;;;;18.55;10.53;;;;;;;27.25;34.61;100788.98;1635421;85;21397;-79
2023/09/19 07:23:44;;;;;;;25.65;10.95;;;;;;;27.47;34.57;100785.94;1622436;86;21259;-79
2023/09/19 07:27:19;;;;;;;22.73;11.63;;;;;;;27.65;35.03;100785.41;1659061;84;21366;-79
2023/09/19 07:30:54;;;;;;;24.05;12.10;;;;;;;27.67;35.12;100785.16;1657062;84;21345;-80
2023/09/19 07:34:13;;;;;;;23.02;12.20;;;;;;;28.01;34.13;100774.24;1633643;85;21279;-79
2023/09/19 07:37:25;;;;;;;23.22;11.85;;;;;;;28.17;34.24;100771.69;1618912;86;124091;-79
2023/09/19 07:40:37;;;;;;;25.95;12.40;;;;;;;28.25;33.44;100773.09;1608238;86;21342;-79
2023/09/19 07:44:04;;;;;;;21.37;10.95;;;;;;;28.22;33.12;100768.87;1611001;86;22492;-80
2023/09/19 07:47:17;;;;;;;12.63;7.12;;;;;;;28.33;32.54;100771.70;1610039;87;21243;-80
2023/09/19 07:50:30;;;;;;;13.58;7.35;;;;;;;28.36;32.20;100768.33;1619530;87;21256;-81
2023/09/19 07:54:08;;;;;;;12.53;6.70;;;;;;;28.62;31.37;100761.53;1597471;87;21207;-80
2023/09/19 07:57:22;;;;;;;11.10;6.72;;;;;;;28.74;31.08;100767.66;1657432;85;21387;-81
2023/09/19 08:00:47;;;;;;;9.88;5.28;;;;;;;28.75;31.64;100762.34;1651756;85;21571;-80
2023/09/19 08:04:09;;;;;;;8.23;4.85;;;;;;;28.86;29.86;100762.30;1662360;83;21257;-80
2023/09/19 08:07:26;;;;;;;13.48;5.00;;;;;;;29.02;29.11;100761.12;1663847;84;21914;-79
2023/09/19 08:10:42;;;;;;;7.37;4.28;;;;;;;28.94;29.56;100751.28;1642873;84;22233;-80
2023/09/19 08:14:02;;;;;;;8.83;3.95;;;;;;;28.77;28.80;100753.59;1657248;84;21223;-80
2023/09/19 08:17:08;;;;;;;9.15;5.00;;;;;;;28.67;29.77;100740.97;1659829;84;21486;-80
2023/09/19 08:20:18;;;;;;;9.70;4.90;;;;;;;28.77;30.05;100743.17;1664653;83;22112;-80
2023/09/19 08:23:28;;;;;;;5.83;4.03;;;;;;;29.06;29.23;100737.45;1667453;83;21166;-80
2023/09/19 08:26:39;;;;;;;7.55;4.60;;;;;;;29.17;28.95;100728.68;1664167;84;21409;-80
2023/09/19 08:29:46;;;;;;;8.33;4.33;;;;;;;29.26;28.40;100729.72;1669451;84;21962;-80
2023/09/19 08:32:54;;;;;;;6.90;4.40;;;;;;;29.37;29.07;100727.70;1663140;84;21333;-80
2023/09/19 08:36:05;;;;;;;15.10;4.67;;;;;;;29.40;28.28;100731.91;1664719;84;21347;-80
2023/09/19 08:39:19;;;;;;;8.43;4.33;;;;;;;29.57;28.12;100726.75;1673738;84;21346;-80
2023/09/19 08:42:28;;;;;;;6.65;4.08;;;;;;;29.51;28.10;100736.35;1668370;84;22465;-79
2023/09/19 08:45:38;;;;;;;6.58;4.40;;;;;;;29.77;28.19;100735.04;1673985;83;21373;-79
2023/09/19 08:48:59;;;;;;;;;;;;;;;29.29;27.39;100730.56;1657786;84;21215;-79
2023/09/19 08:52:20;;;;;;;7.70;4.97;;;;;;;29.46;27.65;100731.59;1662239;83;20813;-79
2023/09/19 08:55:27;;;;;;;8.00;4.42;;;;;;;29.53;28.26;100722.80;1665855;84;21896;-79
2023/09/19 08:58:41;;;;;;;6.65;4.85;;;;;;;29.55;28.04;100721.98;1659947;84;21338;-79
2023/09/19 09:01:53;;;;;;;19.65;5.05;;;;;;;29.56;27.53;100724.23;1665323;84;22066;-79
2023/09/19 09:05:06;;;;;;;5.85;4.05;;;;;;;29.75;27.19;100721.82;1666412;83;21358;-79
2023/09/19 09:08:17;;;;;;;10.28;4.45;;;;;;;29.70;27.07;100716.80;1675162;84;21855;-80
2023/09/19 09:11:41;;;;;;;9.65;4.83;;;;;;;29.64;27.19;100717.95;1661710;84;21231;-81
2023/09/19 09:14:58;;;;;;;6.95;4.65;;;;;;;29.74;27.18;100712.26;1664814;84;21337;-80
2023/09/19 09:18:11;;;;;;;9.88;5.85;;;;;;;29.74;27.21;100713.67;1664930;84;22307;-80
2023/09/19 09:21:23;;;;;;;12.25;5.10;;;;;;;29.78;27.33;100709.97;1652256;84;21297;-81
2023/09/19 09:24:41;;;;;;;15.75;9.38;;;;;;;29.88;27.11;100701.11;1680708;83;21302;-80
2023/09/19 09:28:13;;;;;;;16.15;8.13;;;;;;;29.92;26.98;100693.75;1670615;83;21399;-80
2023/09/19 09:31:37;;;;;;;13.22;7.75;;;;;;;29.90;26.58;100704.50;1669582;83;21234;-80
2023/09/19 09:35:04;;;;;;;14.33;7.00;;;;;;;29.64;26.93;100706.14;1674521;84;22339;-80
2023/09/19 09:38:13;;;;;;;16.10;7.50;;;;;;;29.73;27.12;100700.11;1668088;84;21910;-79
2023/09/19 09:41:35;;;;;;;15.15;7.62;;;;;;;29.81;26.76;100697.23;1663173;84;21391;-80
2023/09/19 09:44:43;;;;;;;16.23;7.67;;;;;;;29.69;26.37;100687.77;1647381;85;21218;-80
2023/09/19 09:47:56;;;;;;;10.68;6.50;;;;;;;29.55;26.65;100695.22;1663238;84;21368;-80
2023/09/19 09:51:16;;;;;;;12.15;6.40;;;;;;;29.39;25.46;100682.33;1658259;84;21321;-79
2023/09/19 09:54:23;;;;;;;12.50;5.53;;;;;;;29.43;26.12;100682.02;1657484;84;21967;-79
2023/09/19 09:57:31;;;;;;;14.65;7.17;;;;;;;29.44;25.41;100676.08;1644345;84;22003;-79
2023/09/19 10:00:42;;;;;;;13.10;6.30;;;;;;;29.25;25.08;100675.94;1658041;85;21810;-80
2023/09/19 10:03:53;;;;;;;13.45;6.40;;;;;;;29.15;25.40;100661.92;1671915;84;21276;-79
2023/09/19 10:07:11;;;;;;;8.90;5.15;;;;;;;29.29;26.06;100674.22;1655146;84;21690;-79
2023/09/19 10:10:22;;;;;;;9.83;5.65;;;;;;;29.56;26.29;100666.47;1665012;84;22055;-79
2023/09/19 10:13:30;;;;;;;14.78;4.97;;;;;;;29.52;25.96;100661.94;1714522;81;21286;-79
2023/09/19 10:16:45;;;;;;;12.03;5.58;;;;;;;29.48;24.61;100656.05;1714091;81;21321;-79
2023/09/19 10:20:18;;;;;;;9.13;5.37;;;;;;;29.32;24.82;100659.30;1661865;84;21482;-79
2023/09/19 10:23:27;;;;;;;21.83;5.60;;;;;;;29.34;25.65;100651.38;1654387;84;21383;-80
2023/09/19 10:30:54;;;;;;;11.45;5.40;;;;;;;29.52;25.73;100641.65;1657279;84;22423;-81
2023/09/19 10:34:03;;;;;;;10.72;4.83;;;;;;;29.54;25.39;100639.39;1713284;81;21330;-81
2023/09/19 10:37:09;;;;;;;9.63;4.60;;;;;;;29.75;25.48;100633.02;1704121;81;22323;-80
2023/09/19 10:40:18;;;;;;;11.68;4.90;;;;;;;29.74;25.16;100632.75;1702635;81;21193;-79
2023/09/19 10:43:46;;;;;;;14.18;6.10;;;;;;;29.72;25.25;100630.78;1715732;81;21315;-80
2023/09/19 10:46:53;;;;;;;9.88;5.55;;;;;;;29.71;26.02;100631.92;1706436;81;21320;-80
2023/09/19 10:49:59;;;;;;;9.33;5.70;;;;;;;29.83;25.91;100626.45;1711377;81;22034;-80
2023/09/19 10:53:10;;;;;;;12.15;6.25;;;;;;;29.95;26.06;100627.73;1711972;81;21372;-80
2023/09/19 10:56:17;;;;;;;11.43;5.90;;;;;;;29.93;25.42;100617.91;1716793;81;22044;-80
2023/09/19 10:59:34;;;;;;;9.45;5.78;;;;;;;29.92;25.69;100621.84;1705185;79;22020;-80
2023/09/19 11:02:35;;;;;;;13.13;6.85;;;;;;;29.81;25.64;100616.89;1696448;82;21412;-79
2023/09/19 11:05:41;;;;;;;9.78;5.22;;;;;;;29.99;25.49;100618.12;1697521;83;21413;-80
2023/09/19 11:12:45;;;;;;;26.87;6.90;;;;;;;30.11;25.85;100608.66;1703309;82;21368;-80
2023/09/19 11:16:10;;;;;;;10.20;5.25;;;;;;;30.24;26.18;100604.32;1672982;83;21941;-80
2023/09/19 11:19:16;;;;;;;12.75;5.60;;;;;;;30.30;26.05;100591.82;1689902;83;21370;-79
2023/09/19 11:22:22;;;;;;;9.23;5.28;;;;;;;30.38;26.10;100597.38;1682045;83;21354;-79
2023/09/19 11:25:47;;;;;;;15.90;6.03;;;;;;;30.41;26.40;100594.80;1684890;83;21342;-80
2023/09/19 11:28:50;;;;;;;14.87;5.85;;;;;;;30.34;26.64;100599.13;1681947;83;21397;-80
2023/09/19 11:32:03;;;;;;;15.05;5.65;;;;;;;30.28;26.70;100589.31;1690334;82;21297;-79
2023/09/19 11:35:17;;;;;;;13.65;5.17;;;;;;;30.38;26.40;100586.09;1674625;84;21377;-79
2023/09/19 11:38:24;;;;;;;6.75;4.12;;;;;;;30.28;26.48;100587.91;1672993;83;21286;-79
2023/09/19 11:41:49;;;;;;;7.78;5.37;;;;;;;30.03;26.30;100589.59;1680089;83;21270;-79
2023/09/19 11:44:55;;;;;;;16.05;5.58;;;;;;;29.81;26.77;100583.06;1684811;84;21961;-80
2023/09/19 11:48:03;;;;;;;13.78;6.50;;;;;;;29.86;26.82;100571.72;1675832;82;21366;-82
2023/09/19 11:51:14;;;;;;;15.90;5.53;;;;;;;29.77;26.54;100567.88;1690151;83;21365;-78
2023/09/19 11:54:21;;;;;;;14.47;6.05;;;;;;;29.99;26.80;100574.41;1658317;82;21837;-79
2023/09/19 11:57:29;;;;;;;10.60;5.70;;;;;;;29.86;26.33;100568.91;1685556;82;21374;-80
2023/09/19 12:00:36;;;;;;;13.50;5.77;;;;;;;29.92;26.41;100558.41;1683069;82;21334;-79
2023/09/19 12:03:43;;;;;;;11.08;5.33;;;;;;;30.02;26.40;100564.79;1680040;84;21971;-80
2023/09/19 12:06:49;;;;;;;13.08;5.33;;;;;;;29.89;27.25;100563.25;1689362;84;21346;-80
2023/09/19 12:09:58;;;;;;;7.37;4.95;;;;;;;30.22;26.54;100560.91;1666302;85;21307;-80
2023/09/19 12:13:05;;;;;;;10.20;4.80;;;;;;;30.10;26.70;100550.58;1671545;82;22358;-80
2023/09/19 12:16:14;;;;;;;13.32;4.65;;;;;;;30.17;26.80;100560.97;1669757;83;21328;-79
2023/09/19 12:19:29;;;;;;;11.68;4.70;;;;;;;30.28;26.64;100549.81;1687555;82;21244;-79
2023/09/19 12:22:43;;;;;;;13.60;4.60;;;;;;;30.39;26.41;100550.52;1689647;82;21356;-79
2023/09/19 12:25:52;;;;;;;10.55;4.72;;;;;;;30.34;26.68;100539.30;1686762;83;21928;-79
2023/09/19 12:28:58;;;;;;;10.53;4.80;;;;;;;30.35;26.40;100545.77;1674302;83;22048;-79
2023/09/19 12:32:06;;;;;;;12.33;4.92;;;;;;;30.31;26.40;100547.55;1671644;84;22700;-79
2023/09/19 12:35:20;;;;;;;9.68;4.75;;;;;;;30.27;26.08;100542.50;1681515;83;22075;-79
2023/09/19 12:38:35;;;;;;;7.87;4.20;;;;;;;30.12;26.14;100546.06;1676035;83;22167;-79
2023/09/19 12:41:42;;;;;;;13.53;4.12;;;;;;;29.98;26.82;100543.13;1673570;83;21269;-79
2023/09/19 12:45:00;;;;;;;12.55;4.53;;;;;;;29.90;27.11;100542.37;1668819;84;21362;-79
2023/09/19 12:48:31;;;;;;;13.90;4.33;;;;;;;29.91;26.66;100533.60;1670770;83;22278;-79
2023/09/19 12:51:47;;;;;;;12.28;4.15;;;;;;;29.95;26.77;100529.05;1686968;83;21398;-80
2023/09/19 12:54:53;;;;;;;10.08;4.33;;;;;;;29.96;27.11;100522.27;1687180;83;21373;-80
2023/09/19 12:58:09;;;;;;;7.70;3.95;;;;;;;30.04;26.83;100516.53;1671562;84;21357;-79
2023/09/19 13:01:40;;;;;;;;;;;;;;;;;;;;;
2023/09/19 13:04:34;;;;;;;8.73;4.17;;;;;;;30.00;26.65;100515.45;1671726;84;21462;-80
2023/09/19 13:07:53;;;;;;;9.95;3.75;;;;;;;30.00;26.35;100503.61;1670598;82;21370;-80
2023/09/19 13:11:18;;;;;;;10.32;4.60;;;;;;;30.14;26.08;100502.91;1679678;84;21334;-79
2023/09/19 13:14:40;;;;;;;6.30;4.30;;;;;;;30.09;25.75;100499.55;1687470;84;21939;-80
2023/09/19 13:17:53;;;;;;;7.15;3.50;;;;;;;30.27;25.87;100498.77;1680366;84;21350;-80
2023/09/19 13:21:22;;;;;;;8.15;4.10;;;;;;;30.38;25.65;100495.23;1684761;84;21350;-79
2023/09/19 13:24:33;;;;;;;7.78;3.87;;;;;;;30.45;25.15;100498.52;1688480;84;21346;-80
2023/09/19 13:27:44;;;;;;;12.28;4.33;;;;;;;30.33;25.37;100493.06;1679733;84;21394;-80
2023/09/19 13:30:51;;;;;;;7.78;3.47;;;;;;;30.24;25.45;100491.48;1691876;83;21326;-79
2023/09/19 13:33:57;;;;;;;6.53;3.65;;;;;;;30.27;25.34;100486.08;1671295;84;21893;-79
2023/09/19 13:37:03;;;;;;;4.95;3.00;;;;;;;30.21;25.51;100487.30;1686106;84;21932;-79
2023/09/19 13:40:08;;;;;;;6.20;3.08;;;;;;;30.13;25.50;100479.50;1690333;83;21365;-79
2023/09/19 13:43:16;;;;;;;9.68;3.25;;;;;;;30.26;25.50;100480.17;1681405;84;22528;-78
2023/09/19 13:46:25;;;;;;;14.78;3.27;;;;;;;30.15;25.49;100482.84;1649732;86;21712;-79
2023/09/19 13:49:33;;;;;;;4.58;3.17;;;;;;;29.87;25.54;100476.70;1709982;83;21341;-79
2023/09/19 13:52:39;;;;;;;7.63;3.33;;;;;;;29.65;25.88;100477.27;1660950;84;22639;-79
2023/09/19 13:55:46;;;;;;;5.60;3.20;;;;;;;29.89;25.76;100474.44;1662376;84;22787;-79
2023/09/19 13:58:53;;;;;;;7.10;3.25;;;;;;;29.79;25.77;100474.84;1677344;85;21964;-79
2023/09/19 14:02:00;;;;;;;5.80;3.08;;;;;;;29.72;25.82;100471.52;1677996;85;21869;-78
2023/09/19 14:05:06;;;;;;;6.80;3.50;;;;;;;29.74;25.97;100480.53;1678058;85;21947;-78
2023/09/19 14:08:13;;;;;;;5.58;3.30;;;;;;;29.67;25.93;100468.77;1680861;85;21374;-79
2023/09/19 14:11:18;;;;;;;5.75;3.67;;;;;;;29.52;26.21;100479.62;1675486;84;21583;-79
2023/09/19 14:14:24;;;;;;;4.95;3.42;;;;;;;29.52;26.17;100475.97;1685885;84;21369;-79
2023/09/19 14:17:29;;;;;;;5.17;2.90;;;;;;;29.44;26.11;100470.97;1681535;82;21740;-79
2023/09/19 14:20:36;;;;;;;13.62;3.62;;;;;;;29.40;26.16;100469.31;1689025;83;21370;-79
2023/09/19 14:23:46;;;;;;;11.15;3.65;;;;;;;29.45;25.87;100469.83;1689374;83;21385;-78
2023/09/19 14:26:52;;;;;;;4.60;3.77;;;;;;;29.45;26.00;100468.42;1683395;83;21307;-79
2023/09/19 14:29:57;;;;;;;5.22;3.60;;;;;;;29.46;26.01;100465.90;1684005;84;21342;-79
2023/09/19 14:33:04;;;;;;;10.35;3.45;;;;;;;29.42;25.92;100457.77;1682069;82;21948;-80
2023/09/19 14:36:13;;;;;;;4.72;3.62;;;;;;;29.45;26.03;100450.11;1687555;84;21395;-80
2023/09/19 14:39:19;;;;;;;5.53;3.37;;;;;;;29.32;26.10;100449.43;1691536;84;21322;-80
2023/09/19 14:42:24;;;;;;;6.28;3.60;;;;;;;29.05;26.26;100442.36;1690352;84;21337;-79
2023/09/19 14:45:31;;;;;;;9.30;3.50;;;;;;;29.02;26.29;100448.00;1692347;83;21337;-79
2023/09/19 14:48:37;;;;;;;6.58;3.90;;;;;;;29.06;26.21;100442.62;1689277;83;21395;-80
2023/09/19 14:51:47;;;;;;;10.15;4.20;;;;;;;28.86;26.46;100444.20;1687563;84;21937;-80
2023/09/19 14:54:53;;;;;;;5.25;3.60;;;;;;;28.82;26.53;100444.52;1688437;84;22270;-80
2023/09/19 14:57:59;;;;;;;9.45;3.90;;;;;;;28.93;26.43;100439.89;1688119;84;21357;-80
2023/09/19 15:01:14;;;;;;;5.37;3.45;;;;;;;28.93;26.37;100442.70;1685945;84;21631;-80
2023/09/19 15:04:20;;;;;;;7.80;3.45;;;;;;;28.83;26.27;100444.78;1687206;82;21363;-79
2023/09/19 15:07:28;;;;;;;6.80;4.47;;;;;;;28.92;26.22;100447.23;1692365;84;21389;-78
2023/09/19 15:10:35;;;;;;;17.12;5.65;;;;;;;28.88;26.36;100446.14;1689074;84;21358;-78
2023/09/19 15:13:41;;;;;;;11.33;5.75;;;;;;;28.76;26.48;100443.72;1689112;83;21331;-78
2023/09/19 15:16:48;;;;;;;13.80;6.12;;;;;;;28.58;26.86;100452.87;1688923;84;21373;-78
2023/09/19 15:19:55;;;;;;;14.33;6.37;;;;;;;28.42;27.07;100449.30;1687053;84;21381;-78
2023/09/19 15:23:03;;;;;;;10.58;5.75;;;;;;;28.18;27.53;100457.58;1684924;83;21349;-78
2023/09/19 15:26:09;;;;;;;12.20;5.22;;;;;;;28.12;27.66;100456.77;1690592;84;21896;-79
2023/09/19 15:29:16;;;;;;;8.70;5.08;;;;;;;27.92;27.92;100449.86;1688648;83;21315;-78
2023/09/19 15:32:22;;;;;;;12.18;4.58;;;;;;;27.79;28.07;100456.09;1688860;84;21342;-78
2023/09/19 15:35:29;;;;;;;10.85;5.30;;;;;;;27.72;28.16;100457.25;1686151;84;21763;-79
2023/09/19 15:38:34;;;;;;;20.30;5.10;;;;;;;27.48;28.41;100456.19;1689430;83;21692;-79
2023/09/19 15:41:51;;;;;;;18.98;5.70;;;;;;;27.43;28.73;100453.36;1690019;83;21991;-79
2023/09/19 15:44:55;;;;;;;35.40;5.80;;;;;;;27.35;28.99;100454.80;1688193;83;22225;-78
2023/09/19 15:48:01;;;;;;;20.45;5.65;;;;;;;27.04;29.46;100448.35;1691015;83;22257;-78
2023/09/19 15:51:11;;;;;;;20.32;5.92;;;;;;;27.00;29.64;100455.09;1689737;83;21379;-78
2023/09/19 15:54:22;;;;;;;20.47;6.03;;;;;;;26.86;29.86;100446.11;1686856;84;21403;-78
2023/09/19 15:57:28;;;;;;;19.15;5.85;;;;;;;26.44;30.38;100443.87;1709430;83;21614;-78
2023/09/19 16:00:37;;;;;;;35.83;6.17;;;;;;;26.36;30.67;100447.75;1717385;83;21992;-78
2023/09/19 16:03:43;;;;;;;20.77;6.35;;;;;;;26.35;30.83;100450.25;1717754;83;21389;-78
2023/09/19 16:06:50;;;;;;;13.55;5.85;;;;;;;26.08;31.07;100451.33;1721385;83;21357;-79
2023/09/19 16:09:56;;;;;;;14.38;5.37;;;;;;;25.89;31.33;100450.98;1713715;83;21339;-78
2023/09/19 16:13:03;;;;;;;16.30;5.87;;;;;;;25.77;31.78;100455.13;1688553;83;21354;-79
2023/09/19 16:16:12;;;;;;;13.70;5.53;;;;;;;25.72;31.86;100455.35;1687595;84;21345;-79
2023/09/19 16:19:20;;;;;;;19.02;5.37;;;;;;;25.50;32.05;100450.47;1689867;83;21913;-78
2023/09/19 16:22:26;;;;;;;14.33;5.85;;;;;;;25.46;32.21;100449.36;1689807;83;21187;-80
2023/09/19 16:25:32;;;;;;;20.15;5.22;;;;;;;25.30;32.54;100446.17;1687504;83;21365;-79
2023/09/19 16:28:41;;;;;;;17.85;5.30;;;;;;;25.12;32.78;100451.08;1688072;83;21366;-78
2023/09/19 16:31:46;;;;;;;18.98;5.08;;;;;;;24.94;33.08;100455.70;1689897;84;21364;-78
2023/09/19 16:34:52;;;;;;;21.48;5.22;;;;;;;24.83;33.28;100456.70;1687905;83;21372;-78
2023/09/19 16:37:59;;;;;;;22.67;5.40;;;;;;;24.74;33.45;100448.80;1684371;84;21335;-78
2023/09/19 16:41:05;;;;;;;18.07;5.28;;;;;;;24.77;33.54;100459.19;1689697;82;21992;-79
2023/09/19 16:44:11;;;;;;;18.95;6.95;;;;;;;24.69;33.83;100463.30;1689060;83;21377;-79
2023/09/19 16:47:16;;;;;;;14.87;6.83;;;;;;;24.53;34.03;100462.89;1689234;83;21360;-79
2023/09/19 16:50:22;;;;;;;28.80;6.17;;;;;;;24.43;34.20;100469.22;1689927;83;22809;-79
2023/09/19 16:53:28;;;;;;;29.27;6.70;;;;;;;24.32;34.50;100474.36;1686721;84;22516;-79
2023/09/19 16:56:36;;;;;;;29.60;7.40;;;;;;;24.17;35.12;100475.89;1688916;83;21368;-79
2023/09/19 16:59:41;;;;;;;15.32;7.08;;;;;;;24.32;35.04;100481.35;1691217;83;21368;-79
2023/09/19 17:02:46;;;;;;;25.37;6.85;;;;;;;24.39;34.65;100484.83;1687806;84;21406;-79
2023/09/19 17:05:54;;;;;;;21.62;7.47;;;;;;;24.36;34.80;100485.31;1689062;84;21975;-79
2023/09/19 17:09:00;;;;;;;17.80;8.13;;;;;;;24.27;35.18;100489.69;1689755;84;22157;-79
2023/09/19 17:12:05;;;;;;;16.42;7.67;;;;;;;24.00;35.45;100500.84;1687430;84;21333;-79
2023/09/19 17:15:12;;;;;;;18.62;8.03;;;;;;;23.75;35.56;100497.16;1685504;84;21917;-79
2023/09/19 17:18:19;;;;;;;13.68;7.62;;;;;;;23.76;35.39;100498.31;1689111;84;21681;-79
2023/09/19 17:21:26;;;;;;;18.10;7.67;;;;;;;23.82;35.31;100499.22;1691579;83;21420;-79
2023/09/19 17:24:31;;;;;;;14.58;7.72;;;;;;;23.90;35.27;100501.53;1686289;84;21686;-78
2023/09/19 17:27:39;;;;;;;14.40;7.42;;;;;;;23.92;35.26;100504.93;1685888;84;22656;-78
2023/09/19 17:30:47;;;;;;;25.02;7.83;;;;;;;24.02;35.19;100516.23;1687562;84;21920;-80
2023/09/19 17:33:53;;;;;;;13.00;6.95;;;;;;;24.02;35.21;100517.63;1685045;83;21984;-79
2023/09/19 17:36:59;;;;;;;15.18;6.67;;;;;;;24.09;35.06;100514.63;1686511;83;21349;-79
2023/09/19 17:40:05;;;;;;;10.05;6.75;;;;;;;23.87;35.50;100513.25;1690063;83;21357;-80
2023/09/19 17:43:10;;;;;;;15.72;6.85;;;;;;;23.63;35.74;100510.66;1687324;84;21363;-80
2023/09/19 17:46:18;;;;;;;15.70;6.80;;;;;;;23.81;35.56;100516.53;1688690;84;21897;-79
2023/09/19 17:49:27;;;;;;;14.58;7.17;;;;;;;23.45;36.07;100515.98;1688503;84;22481;-79
2023/09/19 17:52:33;;;;;;;19.75;7.12;;;;;;;23.38;36.34;100520.04;1690539;83;21995;-79
2023/09/19 17:55:42;;;;;;;18.10;7.05;;;;;;;23.37;36.50;100519.75;1695458;82;21373;-78
2023/09/19 17:58:56;;;;;;;18.07;6.95;;;;;;;23.26;36.70;100523.50;1718868;82;21325;-80
2023/09/19 18:01:59;;;;;;;;;;;;;;;23.26;36.68;100515.97;1734092;82;21361;-80
2023/09/19 18:05:05;;;;;;;18.65;6.45;;;;;;;23.20;36.80;100525.37;1734856;82;20758;-78
2023/09/19 18:08:13;;;;;;;17.92;6.67;;;;;;;23.06;37.03;100524.86;1732935;82;21306;-77
2023/09/19 18:11:27;;;;;;;15.20;7.20;;;;;;;23.08;37.08;100524.60;1711257;82;21362;-77
2023/09/19 18:14:33;;;;;;;12.23;6.67;;;;;;;23.08;37.14;100527.39;1692264;84;21670;-77
2023/09/19 18:17:39;;;;;;;21.68;7.65;;;;;;;23.06;37.15;100527.66;1689152;83;22257;-78
2023/09/19 18:20:46;;;;;;;13.98;6.80;;;;;;;22.85;37.53;100538.12;1689031;84;21350;-78
2023/09/19 18:23:53;;;;;;;17.45;6.62;;;;;;;22.90;37.48;100537.69;1690766;84;21371;-77
2023/09/19 18:27:01;;;;;;;12.70;6.80;;;;;;;22.86;37.54;100532.83;1689350;83;22586;-78
2023/09/19 18:30:06;;;;;;;17.15;7.78;;;;;;;22.91;37.48;100535.73;1686292;84;21353;-77
2023/09/19 18:33:12;;;;;;;24.25;10.15;;;;;;;22.89;37.42;100537.95;1687903;84;21354;-77
2023/09/19 18:36:17;;;;;;;16.73;9.28;;;;;;;22.79;37.78;100543.31;1686273;84;21370;-79
2023/09/19 18:39:23;;;;;;;28.35;9.48;;;;;;;22.58;38.09;100542.08;1689388;84;21430;-79
2023/09/19 18:42:29;;;;;;;13.55;9.03;;;;;;;22.50;38.17;100543.34;1686849;84;21346;-79
2023/09/19 18:45:35;;;;;;;21.27;9.43;;;;;;;22.55;38.11;100548.17;1688629;83;21386;-79
2023/09/19 18:48:47;;;;;;;24.60;9.28;;;;;;;22.60;38.02;100546.31;1690306;83;21350;-79
2023/09/19 18:51:52;;;;;;;19.25;9.65;;;;;;;22.41;38.30;100547.62;1691439;83;21679;-79
2023/09/19 18:55:01;;;;;;;12.82;8.45;;;;;;;22.42;38.28;100546.52;1685536;83;21413;-79
2023/09/19 18:58:06;;;;;;;25.35;9.28;;;;;;;22.27;38.39;100554.58;1691092;83;21385;-79
2023/09/19 19:01:11;;;;;;;17.25;8.80;;;;;;;21.99;39.44;100554.81;1687351;83;21424;-79
2023/09/19 19:04:18;;;;;;;24.98;9.10;;;;;;;21.76;40.26;100557.63;1690341;84;21888;-78
2023/09/19 19:07:25;;;;;;;28.10;9.60;;;;;;;21.63;40.64;100550.38;1692090;83;22565;-78
2023/09/19 19:10:31;;;;;;;17.80;8.90;;;;;;;21.52;40.79;100544.28;1690086;83;21328;-78
2023/09/19 19:13:37;;;;;;;18.42;9.20;;;;;;;21.34;41.30;100546.64;1718532;83;21602;-78
2023/09/19 19:16:43;;;;;;;15.68;8.50;;;;;;;21.07;41.26;100548.45;1716445;83;21361;-78
2023/09/19 19:19:51;;;;;;;15.65;9.03;;;;;;;21.09;41.38;100549.63;1717611;83;21406;-78
2023/09/19 19:22:59;;;;;;;15.05;9.40;;;;;;;21.08;41.36;100547.39;1712212;83;21330;-78
2023/09/19 19:26:06;;;;;;;14.47;8.95;;;;;;;21.00;41.45;100544.10;1715670;83;22574;-78
2023/09/19 19:29:11;;;;;;;11.88;8.38;;;;;;;20.95;41.36;100550.38;1714093;83;21987;-78
2023/09/19 19:32:16;;;;;;;23.00;8.23;;;;;;;20.90;41.31;100555.81;1716122;83;22626;-78
2023/09/19 19:35:28;;;;;;;16.50;8.58;;;;;;;20.62;41.94;100548.96;1718545;83;21318;-78
2023/09/19 19:38:31;;;;;;;14.03;8.58;;;;;;;20.76;41.73;100554.33;1719790;83;21319;-78
2023/09/19 19:41:38;;;;;;;14.28;8.08;;;;;;;20.60;42.29;100548.87;1718144;83;22640;-78
2023/09/19 19:44:45;;;;;;;15.50;7.83;;;;;;;20.55;42.59;100550.13;1698005;83;21357;-78
2023/09/19 19:47:51;;;;;;;12.82;7.58;;;;;;;20.47;42.54;100548.55;1716546;83;21370;-78
2023/09/19 19:50:58;;;;;;;13.32;7.47;;;;;;;20.59;42.47;100552.20;1720630;83;21727;-78
2023/09/19 19:54:03;;;;;;;13.65;8.65;;;;;;;20.58;42.64;100552.45;1720683;83;21322;-78
2023/09/19 19:57:09;;;;;;;18.15;9.08;;;;;;;20.66;42.65;100553.52;1720475;83;21330;-78
2023/09/19 20:00:22;;;;;;;24.30;10.63;;;;;;;20.49;42.73;100555.25;1721591;83;21432;-78
2023/09/19 20:03:24;;;;;;;23.42;10.40;;;;;;;20.53;42.27;100560.11;1715678;83;21389;-79
2023/09/19 20:06:29;;;;;;;22.27;9.33;;;;;;;20.23;42.64;100558.69;1720786;83;21419;-78
2023/09/19 20:09:37;;;;;;;30.05;9.03;;;;;;;20.15;42.73;100557.06;1717622;83;21354;-78
2023/09/19 20:12:42;;;;;;;15.38;8.20;;;;;;;19.98;43.08;100555.98;1715178;83;21386;-78
2023/09/19 20:15:49;;;;;;;10.03;6.90;;;;;;;20.04;43.30;100560.63;1720270;83;21353;-78
2023/09/19 20:18:56;;;;;;;15.70;8.38;;;;;;;19.77;43.75;100555.08;1712851;83;21358;-78
2023/09/19 20:22:05;;;;;;;16.17;7.45;;;;;;;19.94;43.76;100557.53;1719591;83;21326;-78
2023/09/19 20:25:13;;;;;;;18.05;7.25;;;;;;;20.14;43.43;100555.37;1717895;83;21331;-77
2023/09/19 20:28:20;;;;;;;16.12;7.42;;;;;;;20.06;43.52;100557.07;1721500;83;21298;-78
2023/09/19 20:31:27;;;;;;;11.83;8.38;;;;;;;19.96;43.86;100559.55;1715009;83;21365;-78
2023/09/19 20:34:34;;;;;;;15.05;7.92;;;;;;;20.00;43.70;100557.17;1717096;83;22061;-78
2023/09/19 20:37:40;;;;;;;12.23;7.00;;;;;;;20.08;43.58;100559.61;1715942;83;21353;-78
2023/09/19 20:40:49;;;;;;;14.83;8.10;;;;;;;20.19;43.50;100549.66;1714464;83;21350;-77
2023/09/19 20:43:55;;;;;;;15.95;8.48;;;;;;;20.17;43.71;100552.11;1714904;83;21899;-78
2023/09/19 20:47:02;;;;;;;17.42;7.08;;;;;;;20.07;43.82;100549.05;1715655;83;21356;-77
2023/09/19 20:50:09;;;;;;;13.93;7.45;;;;;;;20.15;43.56;100549.28;1715464;83;21766;-78
2023/09/19 20:53:16;;;;;;;12.53;7.35;;;;;;;20.10;43.71;100547.20;1719896;83;21346;-78
2023/09/19 20:56:21;;;;;;;13.85;7.45;;;;;;;20.23;43.53;100545.31;1714398;83;21333;-78
2023/09/19 20:59:26;;;;;;;12.40;7.35;;;;;;;20.12;43.64;100539.47;1717798;83;21341;-78
2023/09/19 21:02:33;;;;;;;12.50;7.45;;;;;;;20.25;43.26;100540.39;1717113;83;21334;-78
2023/09/19 21:05:39;;;;;;;15.30;7.50;;;;;;;20.30;43.19;100541.91;1691311;83;21348;-78
2023/09/19 21:08:47;;;;;;;17.50;7.15;;;;;;;20.39;42.93;100548.84;1681590;84;21343;-78
2023/09/19 21:11:52;;;;;;;21.62;7.08;;;;;;;20.42;42.72;100537.27;1688924;83;21349;-78
2023/09/19 21:14:59;;;;;;;14.30;8.33;;;;;;;20.16;43.18;100539.31;1690205;83;22039;-79
2023/09/19 21:18:04;;;;;;;12.45;7.22;;;;;;;20.21;43.08;100541.39;1688980;83;21772;-79
2023/09/19 21:21:11;;;;;;;13.22;8.00;;;;;;;20.24;42.96;100538.16;1677609;85;21398;-79
2023/09/19 21:24:18;;;;;;;17.20;8.08;;;;;;;20.45;42.34;100538.17;1679860;85;21379;-79
2023/09/19 21:27:23;;;;;;;14.75;8.23;;;;;;;20.51;42.18;100541.41;1711038;83;21354;-79
2023/09/19 21:30:29;;;;;;;14.75;8.25;;;;;;;20.50;42.10;100540.27;1722567;83;21349;-79
2023/09/19 21:33:38;;;;;;;17.67;8.63;;;;;;;20.45;42.21;100538.72;1706822;83;21999;-79
2023/09/19 21:36:46;;;;;;;17.60;8.75;;;;;;;20.59;41.96;100536.92;1686618;84;22494;-79
2023/09/19 21:39:52;;;;;;;13.43;8.75;;;;;;;20.76;41.71;100538.49;1692256;83;21589;-78
2023/09/19 21:42:58;;;;;;;14.63;8.18;;;;;;;20.61;41.93;100538.94;1686459;84;21975;-77
2023/09/19 21:46:05;;;;;;;18.32;9.48;;;;;;;20.59;42.02;100536.08;1689358;84;21352;-78
2023/09/19 21:49:12;;;;;;;17.48;9.30;;;;;;;20.50;42.23;100529.16;1684024;82;21988;-78